CheckWX is a tool to help pilots better visualize weather data.  It is not intended as a substitute for an official pre-flight weather briefing.

12:46:48 UTC

EGNR METAR
Hawarden Airport
Hawarden, United Kingdom
Current

27 mins ago

EGNR 181220Z 22016KT 9999 FEW014 SCT039 10/03 Q1010
Observed
Feb-18 @ 12:20 UTC
Wind
  • 220° at 16 KTS
Visibility
10,000+ meters
Flight Rules
VFR
Cloud Levels
  • Few at 1,400' AGL
  • Scattered at 3,900' AGL
Temperature
10°C / 50°F
Dewpoint
C / 37°F
Humidity
62%
Altimeter
29.82" Hg
Pressure
1009.92 hPa
Previous

57 mins ago

EGNR 181150Z 22012KT 9999 FEW014 SCT039 10/04 Q1011
Observed
Feb-18 @ 11:50 UTC
Wind
  • 220° at 12 KTS
Visibility
10,000+ meters
Flight Rules
VFR
Cloud Levels
  • Few at 1,400' AGL
  • Scattered at 3,900' AGL
Temperature
10°C / 50°F
Dewpoint
C / 39°F
Humidity
67%
Altimeter
29.85" Hg
Pressure
1010.92 hPa
Previous

1 hour ago

EGNR 181120Z 23006KT 190V260 9999 FEW014 SCT033 10/04 Q1011
Observed
Feb-18 @ 11:20 UTC
Wind
  • 230° at 6 KTS
Visibility
10,000+ meters
Flight Rules
VFR
Cloud Levels
  • Few at 1,400' AGL
  • Scattered at 3,300' AGL
Temperature
10°C / 50°F
Dewpoint
C / 39°F
Humidity
67%
Altimeter
29.85" Hg
Pressure
1010.92 hPa